sensor_id;sensor_type;location;lat;lon;timestamp;pressure;altitude;pressure_sealevel;temperature;humidity
9721;BME280;4899;42.644;23.366;2023-01-28T00:01:40;93573.88;;;0.18;100.00
9721;BME280;4899;42.644;23.366;2023-01-28T00:04:05;93569.13;;;0.12;100.00
9721;BME280;4899;42.644;23.366;2023-01-28T00:06:31;93581.75;;;0.12;100.00
9721;BME280;4899;42.644;23.366;2023-01-28T00:08:56;93573.69;;;0.05;100.00
9721;BME280;4899;42.644;23.366;2023-01-28T00:11:22;93589.28;;;0.22;100.00
9721;BME280;4899;42.644;23.366;2023-01-28T00:13:51;93584.25;;;0.17;100.00
9721;BME280;4899;42.644;23.366;2023-01-28T00:16:17;93595.41;;;0.11;100.00
9721;BME280;4899;42.644;23.366;2023-01-28T00:18:42;93594.63;;;0.20;100.00
9721;BME280;4899;42.644;23.366;2023-01-28T00:21:11;93627.50;;;0.10;100.00
9721;BME280;4899;42.644;23.366;2023-01-28T00:23:38;93598.66;;;0.16;100.00
9721;BME280;4899;42.644;23.366;2023-01-28T00:26:07;93599.16;;;0.18;100.00
9721;BME280;4899;42.644;23.366;2023-01-28T00:28:34;93598.41;;;0.18;100.00
9721;BME280;4899;42.644;23.366;2023-01-28T00:31:30;93600.69;;;0.19;100.00
9721;BME280;4899;42.644;23.366;2023-01-28T00:33:56;93597.91;;;0.16;100.00
9721;BME280;4899;42.644;23.366;2023-01-28T00:36:24;93599.22;;;0.08;100.00
9721;BME280;4899;42.644;23.366;2023-01-28T00:38:51;93605.00;;;0.14;100.00
9721;BME280;4899;42.644;23.366;2023-01-28T00:41:18;93610.31;;;0.17;100.00
9721;BME280;4899;42.644;23.366;2023-01-28T00:43:46;93603.44;;;0.23;100.00
9721;BME280;4899;42.644;23.366;2023-01-28T00:46:12;93606.72;;;0.23;100.00
9721;BME280;4899;42.644;23.366;2023-01-28T00:48:42;93616.38;;;0.26;100.00
9721;BME280;4899;42.644;23.366;2023-01-28T00:51:09;93605.22;;;0.27;100.00
9721;BME280;4899;42.644;23.366;2023-01-28T00:53:35;93625.19;;;0.24;100.00
9721;BME280;4899;42.644;23.366;2023-01-28T00:56:03;93619.63;;;0.22;100.00
9721;BME280;4899;42.644;23.366;2023-01-28T00:58:30;93607.28;;;0.15;100.00
9721;BME280;4899;42.644;23.366;2023-01-28T01:00:56;93612.59;;;0.14;100.00
9721;BME280;4899;42.644;23.366;2023-01-28T01:03:21;93610.78;;;0.19;100.00
9721;BME280;4899;42.644;23.366;2023-01-28T01:05:47;93625.72;;;0.21;100.00
9721;BME280;4899;42.644;23.366;2023-01-28T01:08:12;93611.81;;;0.13;100.00
9721;BME280;4899;42.644;23.366;2023-01-28T01:10:39;93603.97;;;0.20;100.00
9721;BME280;4899;42.644;23.366;2023-01-28T01:13:05;93628.00;;;0.17;100.00
9721;BME280;4899;42.644;23.366;2023-01-28T01:15:31;93609.06;;;0.05;100.00
9721;BME280;4899;42.644;23.366;2023-01-28T01:17:57;93619.41;;;0.13;100.00
9721;BME280;4899;42.644;23.366;2023-01-28T01:20:26;93628.50;;;0.19;100.00
9721;BME280;4899;42.644;23.366;2023-01-28T01:22:52;93627.50;;;0.25;100.00
9721;BME280;4899;42.644;23.366;2023-01-28T01:25:18;93619.13;;;0.20;100.00
9721;BME280;4899;42.644;23.366;2023-01-28T01:27:44;93622.97;;;0.12;100.00
9721;BME280;4899;42.644;23.366;2023-01-28T01:30:13;93617.38;;;0.15;100.00
9721;BME280;4899;42.644;23.366;2023-01-28T01:32:39;93619.91;;;0.20;100.00
9721;BME280;4899;42.644;23.366;2023-01-28T01:35:06;93597.72;;;-0.08;100.00
9721;BME280;4899;42.644;23.366;2023-01-28T01:37:33;93632.28;;;0.17;100.00
9721;BME280;4899;42.644;23.366;2023-01-28T01:39:59;93630.03;;;0.10;100.00
9721;BME280;4899;42.644;23.366;2023-01-28T01:42:27;93621.44;;;0.11;100.00
9721;BME280;4899;42.644;23.366;2023-01-28T01:45:12;93626.00;;;0.04;100.00
9721;BME280;4899;42.644;23.366;2023-01-28T01:52:45;93635.88;;;-0.05;100.00
9721;BME280;4899;42.644;23.366;2023-01-28T01:55:16;93624.22;;;-0.01;100.00
9721;BME280;4899;42.644;23.366;2023-01-28T01:57:43;93621.19;;;-0.03;100.00
9721;BME280;4899;42.644;23.366;2023-01-28T02:00:11;93629.28;;;-0.01;100.00
9721;BME280;4899;42.644;23.366;2023-01-28T02:02:45;93640.66;;;-0.03;100.00
9721;BME280;4899;42.644;23.366;2023-01-28T02:05:13;93639.66;;;-0.07;100.00
9721;BME280;4899;42.644;23.366;2023-01-28T02:07:40;93636.63;;;0.01;100.00
9721;BME280;4899;42.644;23.366;2023-01-28T02:10:08;93650.28;;;0.00;100.00
9721;BME280;4899;42.644;23.366;2023-01-28T02:12:40;93637.13;;;0.03;100.00
9721;BME280;4899;42.644;23.366;2023-01-28T02:15:19;93642.19;;;-0.02;100.00
9721;BME280;4899;42.644;23.366;2023-01-28T02:17:47;93630.31;;;-0.12;100.00
9721;BME280;4899;42.644;23.366;2023-01-28T02:20:19;93632.56;;;-0.05;100.00
9721;BME280;4899;42.644;23.366;2023-01-28T02:29:07;93643.72;;;-0.11;100.00
9721;BME280;4899;42.644;23.366;2023-01-28T02:39:01;93648.75;;;-0.11;100.00
9721;BME280;4899;42.644;23.366;2023-01-28T02:41:32;93647.00;;;-0.11;100.00
9721;BME280;4899;42.644;23.366;2023-01-28T02:44:01;93657.88;;;-0.15;100.00
9721;BME280;4899;42.644;23.366;2023-01-28T02:49:41;93647.50;;;-0.14;100.00
9721;BME280;4899;42.644;23.366;2023-01-28T02:55:31;93662.69;;;-0.24;100.00
9721;BME280;4899;42.644;23.366;2023-01-28T03:03:49;93646.00;;;-0.40;100.00
9721;BME280;4899;42.644;23.366;2023-01-28T03:06:24;93661.13;;;-0.50;100.00
9721;BME280;4899;42.644;23.366;2023-01-28T03:08:55;93653.56;;;-0.40;100.00
9721;BME280;4899;42.644;23.366;2023-01-28T03:11:45;93647.25;;;-0.48;100.00
9721;BME280;4899;42.644;23.366;2023-01-28T03:14:32;93658.88;;;-0.42;100.00
9721;BME280;4899;42.644;23.366;2023-01-28T03:17:29;93659.88;;;-0.33;100.00
9721;BME280;4899;42.644;23.366;2023-01-28T03:20:16;93654.34;;;-0.40;100.00
9721;BME280;4899;42.644;23.366;2023-01-28T03:23:02;93652.31;;;-0.33;100.00
9721;BME280;4899;42.644;23.366;2023-01-28T03:25:52;93658.88;;;-0.37;100.00
9721;BME280;4899;42.644;23.366;2023-01-28T03:28:39;93654.56;;;-0.26;100.00
9721;BME280;4899;42.644;23.366;2023-01-28T03:31:25;93652.81;;;-0.31;100.00
9721;BME280;4899;42.644;23.366;2023-01-28T03:34:10;93653.81;;;-0.26;100.00
9721;BME280;4899;42.644;23.366;2023-01-28T03:36:55;93672.50;;;-0.33;100.00
9721;BME280;4899;42.644;23.366;2023-01-28T03:39:26;93664.97;;;-0.22;100.00
9721;BME280;4899;42.644;23.366;2023-01-28T03:41:59;93661.91;;;-0.19;100.00
9721;BME280;4899;42.644;23.366;2023-01-28T03:44:25;93668.25;;;-0.22;100.00
9721;BME280;4899;42.644;23.366;2023-01-28T03:47:10;93659.13;;;-0.18;100.00
9721;BME280;4899;42.644;23.366;2023-01-28T03:49:40;93665.97;;;-0.23;100.00
9721;BME280;4899;42.644;23.366;2023-01-28T03:52:05;93657.38;;;-0.22;100.00
9721;BME280;4899;42.644;23.366;2023-01-28T03:54:31;93625.28;;;-0.42;100.00
9721;BME280;4899;42.644;23.366;2023-01-28T03:56:57;93672.78;;;-0.19;100.00
9721;BME280;4899;42.644;23.366;2023-01-28T03:59:22;93672.75;;;-0.29;100.00
9721;BME280;4899;42.644;23.366;2023-01-28T04:01:47;93680.09;;;-0.27;100.00
9721;BME280;4899;42.644;23.366;2023-01-28T04:04:15;93690.97;;;-0.22;100.00
9721;BME280;4899;42.644;23.366;2023-01-28T04:06:48;93697.28;;;-0.29;100.00
9721;BME280;4899;42.644;23.366;2023-01-28T04:09:14;93684.66;;;-0.35;100.00
9721;BME280;4899;42.644;23.366;2023-01-28T04:11:39;93687.69;;;-0.48;100.00
9721;BME280;4899;42.644;23.366;2023-01-28T04:14:05;93689.69;;;-0.40;100.00
9721;BME280;4899;42.644;23.366;2023-01-28T04:16:30;93684.13;;;-0.32;100.00
9721;BME280;4899;42.644;23.366;2023-01-28T04:18:56;93692.22;;;-0.40;100.00
9721;BME280;4899;42.644;23.366;2023-01-28T04:21:23;93692.22;;;-0.40;100.00
9721;BME280;4899;42.644;23.366;2023-01-28T04:23:49;93686.66;;;-0.42;100.00
9721;BME280;4899;42.644;23.366;2023-01-28T04:26:15;93684.66;;;-0.35;100.00
9721;BME280;4899;42.644;23.366;2023-01-28T04:28:40;93690.19;;;-0.43;100.00
9721;BME280;4899;42.644;23.366;2023-01-28T04:31:06;93689.94;;;-0.41;100.00
9721;BME280;4899;42.644;23.366;2023-01-28T04:33:34;93694.00;;;-0.45;100.00
9721;BME280;4899;42.644;23.366;2023-01-28T04:36:00;93701.31;;;-0.44;100.00
9721;BME280;4899;42.644;23.366;2023-01-28T04:38:25;93704.09;;;-0.35;100.00
9721;BME280;4899;42.644;23.366;2023-01-28T04:40:52;93705.34;;;-0.38;100.00
9721;BME280;4899;42.644;23.366;2023-01-28T04:43:18;93722.53;;;-0.35;100.00
9721;BME280;4899;42.644;23.366;2023-01-28T04:45:45;93706.88;;;-0.47;100.00
9721;BME280;4899;42.644;23.366;2023-01-28T04:48:11;93705.59;;;-0.44;100.00
9721;BME280;4899;42.644;23.366;2023-01-28T04:50:37;93722.50;;;-0.50;100.00
9721;BME280;4899;42.644;23.366;2023-01-28T04:53:03;93710.38;;;-0.58;100.00
9721;BME280;4899;42.644;23.366;2023-01-28T04:55:28;93729.56;;;-0.57;100.00
9721;BME280;4899;42.644;23.366;2023-01-28T04:57:54;93719.47;;;-0.57;100.00
9721;BME280;4899;42.644;23.366;2023-01-28T05:00:20;93715.66;;;-0.65;100.00
9721;BME280;4899;42.644;23.366;2023-01-28T05:02:45;93715.44;;;-0.53;100.00
9721;BME280;4899;42.644;23.366;2023-01-28T05:05:11;93728.53;;;-0.66;100.00
9721;BME280;4899;42.644;23.366;2023-01-28T05:07:36;93731.59;;;-0.54;100.00
9721;BME280;4899;42.644;23.366;2023-01-28T05:10:02;93719.47;;;-0.57;100.00
9721;BME280;4899;42.644;23.366;2023-01-28T05:12:28;93705.00;;;-0.92;100.00
9721;BME280;4899;42.644;23.366;2023-01-28T05:14:57;93732.81;;;-0.72;100.00
9721;BME280;4899;42.644;23.366;2023-01-28T05:17:25;93741.19;;;-0.61;100.00
9721;BME280;4899;42.644;23.366;2023-01-28T05:19:51;93752.03;;;-0.60;100.00
9721;BME280;4899;42.644;23.366;2023-01-28T05:22:16;93746.47;;;-0.63;100.00
9721;BME280;4899;42.644;23.366;2023-01-28T05:24:42;93738.13;;;-0.68;100.00
9721;BME280;4899;42.644;23.366;2023-01-28T05:27:07;93751.78;;;-0.54;100.00
9721;BME280;4899;42.644;23.366;2023-01-28T05:29:33;93744.72;;;-0.62;100.00
9721;BME280;4899;42.644;23.366;2023-01-28T05:31:58;93751.53;;;-0.63;100.00
9721;BME280;4899;42.644;23.366;2023-01-28T05:34:24;93748.50;;;-0.59;100.00
9721;BME280;4899;42.644;23.366;2023-01-28T05:36:50;93753.53;;;-0.65;100.00
9721;BME280;4899;42.644;23.366;2023-01-28T05:39:15;93723.44;;;-0.76;100.00
9721;BME280;4899;42.644;23.366;2023-01-28T05:41:41;93756.84;;;-0.59;100.00
9721;BME280;4899;42.644;23.366;2023-01-28T05:44:06;93765.94;;;-0.58;100.00
9721;BME280;4899;42.644;23.366;2023-01-28T05:46:32;93758.09;;;-0.51;100.00
9721;BME280;4899;42.644;23.366;2023-01-28T05:48:57;93758.34;;;-0.53;100.00
9721;BME280;4899;42.644;23.366;2023-01-28T05:51:22;93746.28;;;-0.46;100.00
9721;BME280;4899;42.644;23.366;2023-01-28T05:53:48;93750.81;;;-0.48;100.00
9721;BME280;4899;42.644;23.366;2023-01-28T05:56:13;93758.09;;;-0.56;100.00
9721;BME280;4899;42.644;23.366;2023-01-28T05:58:39;93762.44;;;-0.47;100.00
9721;BME280;4899;42.644;23.366;2023-01-28T06:01:05;93766.44;;;-0.51;100.00
9721;BME280;4899;42.644;23.366;2023-01-28T06:03:30;93773.00;;;-0.60;100.00
9721;BME280;4899;42.644;23.366;2023-01-28T06:05:56;93784.38;;;-0.52;100.00
9721;BME280;4899;42.644;23.366;2023-01-28T06:08:21;93787.69;;;-0.47;100.00
9721;BME280;4899;42.644;23.366;2023-01-28T06:10:48;93780.81;;;-0.56;100.00
9721;BME280;4899;42.644;23.366;2023-01-28T06:13:13;93796.97;;;-0.68;100.00
9721;BME280;4899;42.644;23.366;2023-01-28T06:15:39;93798.25;;;-0.55;100.00
9721;BME280;4899;42.644;23.366;2023-01-28T06:18:04;93797.75;;;-0.57;100.00
9721;BME280;4899;42.644;23.366;2023-01-28T06:20:31;93802.06;;;-0.52;100.00
9721;BME280;4899;42.644;23.366;2023-01-28T06:22:56;93803.13;;;-0.38;100.00
9721;BME280;4899;42.644;23.366;2023-01-28T06:25:22;93802.88;;;-0.37;100.00
9721;BME280;4899;42.644;23.366;2023-01-28T06:27:47;93812.69;;;-0.45;100.00
9721;BME280;4899;42.644;23.366;2023-01-28T06:30:13;93815.50;;;-0.42;100.00
9721;BME280;4899;42.644;23.366;2023-01-28T06:32:38;93821.56;;;-0.38;100.00
9721;BME280;4899;42.644;23.366;2023-01-28T06:35:04;93822.50;;;-0.54;100.00
9721;BME280;4899;42.644;23.366;2023-01-28T06:37:30;93824.31;;;-0.44;100.00
9721;BME280;4899;42.644;23.366;2023-01-28T06:39:55;93830.66;;;-0.42;100.00
9721;BME280;4899;42.644;23.366;2023-01-28T06:42:21;93824.09;;;-0.33;100.00
9721;BME280;4899;42.644;23.366;2023-01-28T06:44:46;93824.06;;;-0.43;100.00
9721;BME280;4899;42.644;23.366;2023-01-28T06:47:12;93814.66;;;-0.63;100.00
9721;BME280;4899;42.644;23.366;2023-01-28T06:49:39;93831.88;;;-0.49;100.00
9721;BME280;4899;42.644;23.366;2023-01-28T06:52:05;93821.00;;;-0.55;100.00
9721;BME280;4899;42.644;23.366;2023-01-28T06:54:31;93804.81;;;-0.64;100.00
9721;BME280;4899;42.644;23.366;2023-01-28T06:56:56;93843.84;;;-0.19;100.00
9721;BME280;4899;42.644;23.366;2023-01-28T06:59:22;93846.66;;;-0.01;100.00
9721;BME280;4899;42.644;23.366;2023-01-28T07:01:48;93844.38;;;-0.12;100.00
9721;BME280;4899;42.644;23.366;2023-01-28T07:04:13;93856.22;;;-0.23;100.00
9721;BME280;4899;42.644;23.366;2023-01-28T07:06:39;93846.91;;;-0.07;100.00
9721;BME280;4899;42.644;23.366;2023-01-28T07:09:04;93858.50;;;-0.21;100.00
9721;BME280;4899;42.644;23.366;2023-01-28T07:11:30;93871.63;;;-0.24;100.00
9721;BME280;4899;42.644;23.366;2023-01-28T07:13:55;93870.63;;;-0.18;100.00
9721;BME280;4899;42.644;23.366;2023-01-28T07:16:21;93864.06;;;-0.19;100.00
9721;BME280;4899;42.644;23.366;2023-01-28T07:18:46;93873.41;;;-0.20;100.00
9721;BME280;4899;42.644;23.366;2023-01-28T07:21:12;93877.72;;;-0.15;100.00
9721;BME280;4899;42.644;23.366;2023-01-28T07:23:37;93884.06;;;-0.08;100.00
9721;BME280;4899;42.644;23.366;2023-01-28T07:26:04;93878.22;;;-0.13;100.00
9721;BME280;4899;42.644;23.366;2023-01-28T07:28:30;93888.84;;;-0.06;100.00
9721;BME280;4899;42.644;23.366;2023-01-28T07:30:55;93904.78;;;-0.06;100.00
9721;BME280;4899;42.644;23.366;2023-01-28T07:33:21;93896.75;;;0.13;100.00
9721;BME280;4899;42.644;23.366;2023-01-28T07:35:47;93891.91;;;-0.04;100.00
9721;BME280;4899;42.644;23.366;2023-01-28T07:38:13;93894.91;;;-0.12;100.00
9721;BME280;4899;42.644;23.366;2023-01-28T07:40:39;93906.78;;;-0.18;100.00
9721;BME280;4899;42.644;23.366;2023-01-28T07:43:07;93910.59;;;-0.05;100.00
9721;BME280;4899;42.644;23.366;2023-01-28T07:45:32;93897.00;;;0.01;100.00
9721;BME280;4899;42.644;23.366;2023-01-28T07:48:00;93924.03;;;0.01;100.00
9721;BME280;4899;42.644;23.366;2023-01-28T07:50:27;93910.38;;;0.02;100.00
9721;BME280;4899;42.644;23.366;2023-01-28T07:52:54;93907.88;;;0.12;100.00
9721;BME280;4899;42.644;23.366;2023-01-28T07:55:20;93894.47;;;0.01;100.00
9721;BME280;4899;42.644;23.366;2023-01-28T07:57:56;93926.09;;;0.19;100.00
9721;BME280;4899;42.644;23.366;2023-01-28T08:00:23;93911.94;;;0.23;100.00
9721;BME280;4899;42.644;23.366;2023-01-28T08:02:49;93918.81;;;0.33;100.00
9721;BME280;4899;42.644;23.366;2023-01-28T08:05:20;93933.97;;;0.33;100.00
9721;BME280;4899;42.644;23.366;2023-01-28T08:07:46;93926.41;;;0.48;100.00
9721;BME280;4899;42.644;23.366;2023-01-28T08:10:16;93920.63;;;0.57;100.00
9721;BME280;4899;42.644;23.366;2023-01-28T08:12:56;93923.13;;;0.47;100.00
9721;BME280;4899;42.644;23.366;2023-01-28T08:15:23;93928.47;;;0.66;100.00
9721;BME280;4899;42.644;23.366;2023-01-28T08:17:49;93920.38;;;0.59;100.00
9721;BME280;4899;42.644;23.366;2023-01-28T08:20:15;93932.50;;;0.67;100.00
9721;BME280;4899;42.644;23.366;2023-01-28T08:22:41;93929.47;;;0.70;100.00
9721;BME280;4899;42.644;23.366;2023-01-28T08:25:07;93920.63;;;0.63;100.00
9721;BME280;4899;42.644;23.366;2023-01-28T08:27:32;93925.44;;;0.69;100.00
9721;BME280;4899;42.644;23.366;2023-01-28T08:29:58;93929.69;;;0.38;100.00
9721;BME280;4899;42.644;23.366;2023-01-28T08:32:23;93926.94;;;0.70;100.00
9721;BME280;4899;42.644;23.366;2023-01-28T08:34:49;93923.16;;;0.88;100.00
9721;BME280;4899;42.644;23.366;2023-01-28T08:37:15;93923.91;;;0.73;100.00
9721;BME280;4899;42.644;23.366;2023-01-28T08:39:40;93941.63;;;0.63;100.00
9721;BME280;4899;42.644;23.366;2023-01-28T08:42:07;93935.03;;;0.72;100.00
9721;BME280;4899;42.644;23.366;2023-01-28T08:44:33;93940.13;;;0.92;100.00
9721;BME280;4899;42.644;23.366;2023-01-28T08:46:58;93935.53;;;0.69;100.00
9721;BME280;4899;42.644;23.366;2023-01-28T08:49:24;93928.72;;;0.59;100.00
9721;BME280;4899;42.644;23.366;2023-01-28T08:51:51;93934.06;;;0.83;100.00
9721;BME280;4899;42.644;23.366;2023-01-28T08:54:16;93942.41;;;0.84;100.00
9721;BME280;4899;42.644;23.366;2023-01-28T08:56:42;93932.53;;;1.13;100.00
9721;BME280;4899;42.644;23.366;2023-01-28T08:59:12;93937.84;;;1.32;100.00
9721;BME280;4899;42.644;23.366;2023-01-28T09:01:37;93945.19;;;1.33;100.00
9721;BME280;4899;42.644;23.366;2023-01-28T09:04:03;93930.47;;;1.35;100.00
9721;BME280;4899;42.644;23.366;2023-01-28T09:06:29;93938.03;;;1.45;100.00
9721;BME280;4899;42.644;23.366;2023-01-28T09:08:58;93929.50;;;1.11;100.00
9721;BME280;4899;42.644;23.366;2023-01-28T09:11:24;93951.25;;;1.22;100.00
9721;BME280;4899;42.644;23.366;2023-01-28T09:13:50;93944.16;;;1.49;100.00
9721;BME280;4899;42.644;23.366;2023-01-28T09:16:15;93948.94;;;1.46;100.00
9721;BME280;4899;42.644;23.366;2023-01-28T09:18:41;93945.69;;;1.35;100.00
9721;BME280;4899;42.644;23.366;2023-01-28T09:21:07;93952.78;;;1.33;100.00
9721;BME280;4899;42.644;23.366;2023-01-28T09:23:34;93937.34;;;1.14;100.00
9721;BME280;4899;42.644;23.366;2023-01-28T09:26:00;93944.19;;;1.24;100.00
9721;BME280;4899;42.644;23.366;2023-01-28T09:28:26;93953.75;;;1.42;100.00
9721;BME280;4899;42.644;23.366;2023-01-28T09:30:51;93939.03;;;1.60;100.00
9721;BME280;4899;42.644;23.366;2023-01-28T09:33:18;93939.56;;;1.57;100.00
9721;BME280;4899;42.644;23.366;2023-01-28T09:35:43;93956.75;;;1.75;100.00
9721;BME280;4899;42.644;23.366;2023-01-28T09:38:09;93947.16;;;1.57;100.00
9721;BME280;4899;42.644;23.366;2023-01-28T09:40:38;93931.44;;;1.60;100.00
9721;BME280;4899;42.644;23.366;2023-01-28T09:48:01;93944.13;;;1.44;100.00
9721;BME280;4899;42.644;23.366;2023-01-28T09:50:36;93934.50;;;1.57;100.00
9721;BME280;4899;42.644;23.366;2023-01-28T09:53:19;93937.53;;;1.59;100.00
9721;BME280;4899;42.644;23.366;2023-01-28T09:58:24;93947.44;;;1.35;100.00
9721;BME280;4899;42.644;23.366;2023-01-28T10:17:25;93941.59;;;1.44;100.00
9721;BME280;4899;42.644;23.366;2023-01-28T10:19:57;93940.84;;;1.39;100.00
9721;BME280;4899;42.644;23.366;2023-01-28T10:22:31;93924.91;;;1.23;100.00
9721;BME280;4899;42.644;23.366;2023-01-28T10:25:04;93937.03;;;1.51;100.00
9721;BME280;4899;42.644;23.366;2023-01-28T10:27:31;93941.34;;;1.41;100.00
9721;BME280;4899;42.644;23.366;2023-01-28T10:29:58;93957.06;;;1.53;100.00
9721;BME280;4899;42.644;23.366;2023-01-28T10:32:33;93946.69;;;1.39;100.00
9721;BME280;4899;42.644;23.366;2023-01-28T10:35:00;93941.63;;;1.49;100.00
9721;BME280;4899;42.644;23.366;2023-01-28T10:37:32;93935.50;;;1.61;100.00
9721;BME280;4899;42.644;23.366;2023-01-28T10:39:59;93952.25;;;1.51;100.00
9721;BME280;4899;42.644;23.366;2023-01-28T10:42:33;93934.25;;;1.53;100.00
9721;BME280;4899;42.644;23.366;2023-01-28T10:45:27;93953.75;;;1.52;100.00
9721;BME280;4899;42.644;23.366;2023-01-28T10:48:08;93927.38;;;1.59;100.00
9721;BME280;4899;42.644;23.366;2023-01-28T10:50:49;93917.66;;;1.86;100.00
9721;BME280;4899;42.644;23.366;2023-01-28T10:53:14;93915.13;;;1.91;100.00
9721;BME280;4899;42.644;23.366;2023-01-28T10:55:57;93950.53;;;2.11;100.00
9721;BME280;4899;42.644;23.366;2023-01-28T10:58:26;93925.72;;;2.03;100.00
9721;BME280;4899;42.644;23.366;2023-01-28T11:00:59;93919.03;;;2.28;100.00
9721;BME280;4899;42.644;23.366;2023-01-28T11:03:26;93920.00;;;2.32;100.00
9721;BME280;4899;42.644;23.366;2023-01-28T11:05:53;93926.00;;;2.46;100.00
9721;BME280;4899;42.644;23.366;2023-01-28T11:08:20;93917.53;;;2.16;100.00
9721;BME280;4899;42.644;23.366;2023-01-28T11:10:48;93916.97;;;1.65;100.00
9721;BME280;4899;42.644;23.366;2023-01-28T11:13:25;93906.13;;;1.54;100.00
9721;BME280;4899;42.644;23.366;2023-01-28T11:16:05;93935.53;;;1.40;100.00
9721;BME280;4899;42.644;23.366;2023-01-28T11:18:55;93917.31;;;1.33;100.00
9721;BME280;4899;42.644;23.366;2023-01-28T11:21:25;93930.44;;;1.45;100.00
9721;BME280;4899;42.644;23.366;2023-01-28T11:23:54;93930.69;;;1.59;100.00
9721;BME280;4899;42.644;23.366;2023-01-28T11:26:27;93927.56;;;1.82;100.00
9721;BME280;4899;42.644;23.366;2023-01-28T11:28:54;93928.81;;;1.90;100.00
9721;BME280;4899;42.644;23.366;2023-01-28T11:31:21;93921.53;;;1.68;100.00
9721;BME280;4899;42.644;23.366;2023-01-28T11:33:55;93933.41;;;1.83;100.00
9721;BME280;4899;42.644;23.366;2023-01-28T11:36:27;93926.34;;;1.75;100.00
9721;BME280;4899;42.644;23.366;2023-01-28T11:41:33;93913.22;;;1.42;100.00
9721;BME280;4899;42.644;23.366;2023-01-28T11:44:15;93931.69;;;1.63;100.00
9721;BME280;4899;42.644;23.366;2023-01-28T12:01:01;93933.25;;;1.39;100.00
9721;BME280;4899;42.644;23.366;2023-01-28T12:08:40;93920.31;;;1.50;100.00
9721;BME280;4899;42.644;23.366;2023-01-28T12:11:29;93927.41;;;1.48;100.00
9721;BME280;4899;42.644;23.366;2023-01-28T12:14:41;93920.44;;;1.90;100.00
9721;BME280;4899;42.644;23.366;2023-01-28T12:33:55;93935.63;;;1.95;100.00
9721;BME280;4899;42.644;23.366;2023-01-28T12:42:29;93940.09;;;2.18;100.00
9721;BME280;4899;42.644;23.366;2023-01-28T12:45:48;93934.13;;;2.48;100.00
9721;BME280;4899;42.644;23.366;2023-01-28T12:48:01;93936.09;;;2.07;100.00
9721;BME280;4899;42.644;23.366;2023-01-28T12:50:57;93943.44;;;2.08;100.00
9721;BME280;4899;42.644;23.366;2023-01-28T12:55:56;93951.53;;;2.15;100.00
9721;BME280;4899;42.644;23.366;2023-01-28T12:58:36;93944.84;;;2.35;100.00
9721;BME280;4899;42.644;23.366;2023-01-28T13:01:07;93954.28;;;2.29;100.00
9721;BME280;4899;42.644;23.366;2023-01-28T13:03:50;93953.41;;;2.49;100.00
9721;BME280;4899;42.644;23.366;2023-01-28T13:06:31;93944.44;;;2.62;100.00
9721;BME280;4899;42.644;23.366;2023-01-28T13:09:19;93965.09;;;2.50;100.00
9721;BME280;4899;42.644;23.366;2023-01-28T13:11:47;93955.78;;;2.80;100.00
9721;BME280;4899;42.644;23.366;2023-01-28T13:14:15;93956.84;;;2.73;100.00
9721;BME280;4899;42.644;23.366;2023-01-28T13:16:41;93978.84;;;2.39;100.00
9721;BME280;4899;42.644;23.366;2023-01-28T13:19:21;93973.56;;;2.20;100.00
9721;BME280;4899;42.644;23.366;2023-01-28T13:21:47;93962.28;;;1.92;100.00
9721;BME280;4899;42.644;23.366;2023-01-28T13:26:48;93975.91;;;2.11;100.00
9721;BME280;4899;42.644;23.366;2023-01-28T13:31:48;93970.22;;;1.60;100.00
9721;BME280;4899;42.644;23.366;2023-01-28T13:34:31;93963.88;;;1.63;100.00
9721;BME280;4899;42.644;23.366;2023-01-28T13:37:00;93982.09;;;1.80;100.00
9721;BME280;4899;42.644;23.366;2023-01-28T13:39:28;93967.41;;;1.62;100.00
9721;BME280;4899;42.644;23.366;2023-01-28T13:42:06;93972.72;;;1.65;100.00
9721;BME280;4899;42.644;23.366;2023-01-28T13:44:34;93983.66;;;1.56;100.00
9721;BME280;4899;42.644;23.366;2023-01-28T13:49:43;93979.63;;;1.49;100.00
9721;BME280;4899;42.644;23.366;2023-01-28T13:52:13;94004.44;;;1.52;100.00
9721;BME280;4899;42.644;23.366;2023-01-28T13:55:00;93989.75;;;1.49;100.00
9721;BME280;4899;42.644;23.366;2023-01-28T13:57:40;94005.19;;;1.58;100.00
9721;BME280;4899;42.644;23.366;2023-01-28T14:03:13;94005.97;;;1.28;100.00
9721;BME280;4899;42.644;23.366;2023-01-28T14:16:57;94026.75;;;1.30;100.00
9721;BME280;4899;42.644;23.366;2023-01-28T14:19:30;94031.28;;;1.23;100.00
9721;BME280;4899;42.644;23.366;2023-01-28T14:21:57;94025.22;;;1.29;100.00
9721;BME280;4899;42.644;23.366;2023-01-28T14:24:22;94016.13;;;1.28;100.00
9721;BME280;4899;42.644;23.366;2023-01-28T14:32:19;94025.97;;;1.09;100.00
9721;BME280;4899;42.644;23.366;2023-01-28T14:34:46;94027.72;;;0.93;100.00
9721;BME280;4899;42.644;23.366;2023-01-28T14:37:14;94037.59;;;0.90;100.00
9721;BME280;4899;42.644;23.366;2023-01-28T14:39:54;94018.09;;;0.96;100.00
9721;BME280;4899;42.644;23.366;2023-01-28T14:42:29;94025.19;;;0.93;100.00
9721;BME280;4899;42.644;23.366;2023-01-28T14:53:53;94038.09;;;0.87;100.00
9721;BME280;4899;42.644;23.366;2023-01-28T14:58:59;94042.38;;;0.81;100.00
9721;BME280;4899;42.644;23.366;2023-01-28T15:01:29;94036.81;;;0.79;100.00
9721;BME280;4899;42.644;23.366;2023-01-28T15:03:55;94046.41;;;0.72;100.00
9721;BME280;4899;42.644;23.366;2023-01-28T15:06:30;94047.16;;;0.73;100.00
9721;BME280;4899;42.644;23.366;2023-01-28T15:09:08;94043.59;;;0.69;100.00
9721;BME280;4899;42.644;23.366;2023-01-28T15:11:39;94040.81;;;0.65;100.00
9721;BME280;4899;42.644;23.366;2023-01-28T15:14:27;94050.94;;;0.60;100.00
9721;BME280;4899;42.644;23.366;2023-01-28T15:16:54;94055.97;;;0.55;100.00
9721;BME280;4899;42.644;23.366;2023-01-28T15:19:26;94052.94;;;0.53;100.00
9721;BME280;4899;42.644;23.366;2023-01-28T15:22:00;94021.50;;;0.34;100.00
9721;BME280;4899;42.644;23.366;2023-01-28T15:24:26;94049.91;;;0.51;100.00
9721;BME280;4899;42.644;23.366;2023-01-28T15:26:52;94050.91;;;0.55;100.00
9721;BME280;4899;42.644;23.366;2023-01-28T15:29:30;94051.69;;;0.60;100.00
9721;BME280;4899;42.644;23.366;2023-01-28T15:31:56;94075.72;;;0.58;100.00
9721;BME280;4899;42.644;23.366;2023-01-28T15:34:21;94056.75;;;0.55;100.00
9721;BME280;4899;42.644;23.366;2023-01-28T15:36:54;94062.00;;;0.49;100.00
9721;BME280;4899;42.644;23.366;2023-01-28T15:39:21;94068.88;;;0.53;100.00
9721;BME280;4899;42.644;23.366;2023-01-28T15:41:51;94071.66;;;0.52;100.00